createdAt,value
2018-09-09T00:01:46.541Z,12.53
2018-09-09T00:04:15.545Z,12.20
2018-09-09T00:06:44.553Z,11.70
2018-09-09T00:09:17.804Z,11.80
2018-09-09T00:11:47.808Z,11.93
2018-09-09T00:14:16.705Z,11.03
2018-09-09T00:16:45.703Z,11.47
2018-09-09T00:19:14.564Z,11.83
2018-09-09T00:21:43.456Z,12.20
2018-09-09T00:24:12.349Z,12.17
2018-09-09T00:26:41.351Z,11.80
2018-09-09T00:29:10.430Z,12.60
2018-09-09T00:31:39.329Z,12.00
2018-09-09T00:34:08.165Z,11.60
2018-09-09T00:36:37.072Z,12.30
2018-09-09T00:39:07.798Z,11.27
2018-09-09T00:41:36.746Z,12.20
2018-09-09T00:44:05.660Z,11.93
2018-09-09T00:46:37.659Z,12.20
2018-09-09T00:49:11.747Z,12.00
2018-09-09T00:51:45.655Z,12.07
2018-09-09T00:54:14.569Z,12.27
2018-09-09T00:56:43.596Z,12.43
2018-09-09T00:59:12.886Z,11.97
2018-09-09T01:01:41.791Z,12.53
2018-09-09T01:04:10.802Z,11.33
2018-09-09T01:06:39.687Z,12.53
2018-09-09T01:09:10.038Z,12.07
2018-09-09T01:11:38.905Z,12.57
2018-09-09T01:14:07.903Z,12.97
2018-09-09T01:16:36.887Z,13.70
2018-09-09T01:19:05.891Z,13.73
2018-09-09T01:21:34.703Z,12.57
2018-09-09T01:24:03.592Z,13.63
2018-09-09T01:26:32.461Z,12.50
2018-09-09T01:29:01.501Z,14.40
2018-09-09T01:31:30.373Z,14.47
2018-09-09T01:34:02.895Z,12.80
2018-09-09T01:36:31.741Z,14.27
2018-09-09T01:39:00.610Z,14.13
2018-09-09T01:41:29.931Z,14.37
2018-09-09T01:43:58.847Z,14.77
2018-09-09T01:46:27.767Z,14.07
2018-09-09T01:48:56.938Z,14.40
2018-09-09T01:51:25.994Z,13.93
2018-09-09T01:53:54.823Z,14.93
2018-09-09T01:56:23.658Z,14.10
2018-09-09T01:58:52.560Z,14.23
2018-09-09T02:01:21.497Z,14.03
2018-09-09T02:03:50.384Z,13.73
2018-09-09T02:06:19.257Z,13.87
2018-09-09T02:08:52.388Z,14.27
2018-09-09T02:11:21.396Z,13.47
2018-09-09T02:13:50.498Z,14.67
2018-09-09T02:16:19.380Z,13.90
2018-09-09T02:18:48.381Z,14.73
2018-09-09T02:21:17.307Z,13.83
2018-09-09T02:23:46.162Z,12.93
2018-09-09T02:26:14.969Z,14.03
2018-09-09T02:28:43.828Z,13.83
2018-09-09T02:31:12.768Z,12.97
2018-09-09T02:33:42.829Z,13.27
2018-09-09T02:36:11.684Z,12.63
2018-09-09T02:38:40.906Z,13.53
2018-09-09T02:41:09.888Z,14.13
2018-09-09T02:43:38.866Z,13.17
2018-09-09T02:46:08.037Z,13.70
2018-09-09T02:48:36.936Z,13.83
2018-09-09T02:51:05.790Z,14.00
2018-09-09T02:53:34.703Z,13.33
2018-09-09T02:56:08.379Z,13.03
2018-09-09T02:58:37.532Z,13.90
2018-09-09T03:01:06.722Z,13.60
2018-09-09T03:03:35.648Z,13.10
2018-09-09T03:06:05.003Z,13.20
2018-09-09T03:08:33.841Z,12.43
2018-09-09T03:11:08.108Z,12.47
2018-09-09T03:13:37.370Z,12.17
2018-09-09T03:16:06.381Z,12.90
2018-09-09T03:18:35.318Z,12.73
2018-09-09T03:21:04.161Z,13.23
2018-09-09T03:23:36.190Z,12.33
2018-09-09T03:26:05.204Z,12.57
2018-09-09T03:28:34.344Z,12.80
2018-09-09T03:31:03.325Z,13.53
2018-09-09T03:33:32.277Z,13.13
2018-09-09T03:36:01.175Z,13.33
2018-09-09T03:38:30.066Z,12.57
2018-09-09T03:40:58.987Z,13.67
2018-09-09T03:43:27.910Z,13.23
2018-09-09T03:45:56.964Z,12.90
2018-09-09T03:48:26.024Z,13.13
2018-09-09T03:50:54.895Z,13.73
2018-09-09T03:53:24.944Z,12.37
2018-09-09T03:55:54.021Z,13.20
2018-09-09T03:58:22.819Z,12.13
2018-09-09T04:00:52.395Z,12.60
2018-09-09T04:03:21.281Z,12.73
2018-09-09T04:05:50.090Z,12.90
2018-09-09T04:08:19.508Z,13.10
2018-09-09T04:10:48.517Z,12.43
2018-09-09T04:13:17.361Z,13.33
2018-09-09T04:15:46.572Z,13.53
2018-09-09T04:18:16.755Z,12.03
2018-09-09T04:20:45.739Z,13.40
2018-09-09T04:23:15.125Z,12.83
2018-09-09T04:25:44.033Z,12.27
2018-09-09T04:28:12.931Z,12.00
2018-09-09T04:30:42.139Z,12.70
2018-09-09T04:33:11.077Z,12.20
2018-09-09T04:35:40.067Z,12.17
2018-09-09T04:38:09.100Z,13.50
2018-09-09T04:40:38.012Z,11.67
2018-09-09T04:43:06.850Z,11.87
2018-09-09T04:45:36.097Z,11.90
2018-09-09T04:48:04.995Z,12.60
2018-09-09T04:50:34.009Z,12.57
2018-09-09T04:53:02.908Z,12.10
2018-09-09T04:55:31.809Z,11.43
2018-09-09T04:58:00.685Z,11.00
2018-09-09T05:00:29.704Z,11.17
2018-09-09T05:02:58.580Z,10.97
2018-09-09T05:05:27.559Z,11.50
2018-09-09T05:07:56.588Z,10.40
2018-09-09T05:10:25.430Z,11.50
2018-09-09T05:12:54.401Z,11.93
2018-09-09T05:15:23.474Z,10.63
2018-09-09T05:17:52.421Z,10.37
2018-09-09T05:20:21.268Z,10.57
2018-09-09T05:22:50.117Z,11.60
2018-09-09T05:25:19.048Z,10.30
2018-09-09T05:27:48.000Z,11.47
2018-09-09T05:30:17.368Z,10.60
2018-09-09T05:32:46.262Z,11.27
2018-09-09T05:35:15.199Z,10.30
2018-09-09T05:37:44.181Z,10.10
2018-09-09T05:40:13.188Z,10.17
2018-09-09T05:42:41.995Z,10.13
2018-09-09T05:45:11.665Z,10.37
2018-09-09T05:47:40.596Z,9.73
2018-09-09T05:50:09.640Z,10.70
2018-09-09T05:52:38.549Z,9.93
2018-09-09T05:55:07.537Z,9.73
2018-09-09T05:57:36.345Z,9.80
2018-09-09T06:00:05.447Z,10.77
2018-09-09T06:02:34.490Z,10.43
2018-09-09T06:05:06.657Z,10.37
2018-09-09T06:07:35.521Z,10.63
2018-09-09T06:10:04.473Z,9.40
2018-09-09T06:12:33.401Z,10.23
2018-09-09T06:15:02.381Z,10.67
2018-09-09T06:17:31.348Z,10.60
2018-09-09T06:20:00.588Z,10.30
2018-09-09T06:22:29.472Z,10.27
2018-09-09T06:24:59.352Z,10.53
2018-09-09T06:27:28.258Z,10.83
2018-09-09T06:29:57.292Z,10.07
2018-09-09T06:32:26.290Z,10.13
2018-09-09T06:34:55.306Z,10.13
2018-09-09T06:37:25.296Z,10.20
2018-09-09T06:39:54.223Z,9.90
2018-09-09T06:42:23.466Z,10.87
2018-09-09T06:44:52.357Z,10.37
2018-09-09T06:47:21.160Z,9.97
2018-09-09T06:49:50.511Z,10.00
2018-09-09T06:52:19.358Z,10.28
2018-09-09T06:54:48.205Z,9.45
2018-09-09T06:57:17.090Z,9.90
2018-09-09T06:59:46.022Z,9.73
2018-09-09T07:02:18.482Z,9.80
2018-09-09T07:04:47.408Z,9.43
2018-09-09T07:07:16.363Z,10.80
2018-09-09T07:09:45.344Z,10.23
2018-09-09T07:12:14.356Z,8.73
2018-09-09T07:14:43.175Z,10.43
2018-09-09T07:17:12.502Z,9.53
2018-09-09T07:19:42.332Z,10.03
2018-09-09T07:22:11.287Z,9.18
2018-09-09T07:24:40.926Z,10.03
2018-09-09T07:27:09.858Z,10.05
2018-09-09T07:29:38.837Z,9.80
2018-09-09T07:32:08.248Z,9.98
2018-09-09T07:34:37.167Z,8.80
2018-09-09T07:37:06.043Z,9.90
2018-09-09T07:39:35.063Z,9.95
2018-09-09T07:42:04.466Z,10.10
2018-09-09T07:44:33.423Z,9.58
2018-09-09T07:47:02.729Z,10.03
2018-09-09T07:49:31.717Z,10.30
2018-09-09T07:52:00.612Z,10.15
2018-09-09T07:54:29.888Z,9.75
2018-09-09T07:56:59.776Z,9.75
2018-09-09T07:59:28.711Z,9.53
2018-09-09T08:01:58.103Z,9.73
2018-09-09T08:04:26.942Z,10.53
2018-09-09T08:06:55.833Z,11.45
2018-09-09T08:09:24.983Z,10.75
2018-09-09T08:11:53.962Z,9.90
2018-09-09T08:14:22.890Z,9.65
2018-09-09T08:16:51.896Z,9.55
2018-09-09T08:19:21.161Z,9.83
2018-09-09T08:21:49.979Z,10.30
2018-09-09T08:24:19.824Z,10.75
2018-09-09T08:26:48.677Z,10.25
2018-09-09T08:29:17.530Z,10.18
2018-09-09T08:31:46.825Z,8.33
2018-09-09T08:34:15.612Z,9.25
2018-09-09T08:36:45.676Z,9.03
2018-09-09T08:39:14.730Z,9.43
2018-09-09T08:41:43.663Z,9.38
2018-09-09T08:44:12.657Z,8.43
2018-09-09T08:46:41.817Z,8.78
2018-09-09T08:49:10.626Z,9.00
2018-09-09T08:51:39.447Z,8.50
2018-09-09T08:54:08.490Z,8.68
2018-09-09T08:56:37.282Z,8.75
2018-09-09T08:59:06.342Z,8.90
2018-09-09T09:01:35.720Z,9.30
2018-09-09T09:04:04.622Z,7.90
2018-09-09T09:06:33.545Z,8.10
2018-09-09T09:09:02.477Z,8.88
2018-09-09T09:11:31.408Z,8.85
2018-09-09T09:14:00.317Z,8.20
2018-09-09T09:16:29.293Z,8.38
2018-09-09T09:34:58.876Z,9.20
2018-09-09T09:37:28.126Z,7.87
2018-09-09T09:39:57.093Z,7.55
2018-09-09T09:42:26.093Z,7.87
2018-09-09T09:44:55.488Z,7.45
2018-09-09T09:47:24.537Z,7.42
2018-09-09T09:49:56.686Z,7.35
2018-09-09T09:52:25.615Z,7.37
2018-09-09T09:54:54.516Z,7.60
2018-09-09T09:57:23.492Z,8.08
2018-09-09T09:59:52.483Z,7.95
2018-09-09T10:02:21.352Z,7.95
2018-09-09T10:04:53.486Z,7.33
2018-09-09T10:07:22.332Z,7.37
2018-09-09T10:09:51.194Z,6.87
2018-09-09T10:12:20.136Z,7.35
2018-09-09T10:14:49.080Z,7.25
2018-09-09T10:17:18.941Z,6.92
2018-09-09T10:19:47.870Z,7.40
2018-09-09T10:22:16.955Z,7.55
2018-09-09T10:24:45.821Z,7.35
2018-09-09T10:27:15.320Z,6.87
2018-09-09T10:29:44.318Z,6.95
2018-09-09T10:32:13.225Z,8.10
2018-09-09T10:35:07.319Z,7.12
2018-09-09T10:37:56.911Z,7.25
2018-09-09T10:40:26.252Z,7.20
2018-09-09T10:42:55.317Z,6.90
2018-09-09T10:45:24.187Z,6.80
2018-09-09T10:47:53.352Z,7.15
2018-09-09T10:50:22.198Z,7.33
2018-09-09T10:52:51.231Z,6.85
2018-09-09T10:55:20.258Z,7.55
2018-09-09T10:57:49.092Z,6.90
2018-09-09T11:00:18.081Z,7.33
2018-09-09T11:02:48.506Z,7.08
2018-09-09T11:05:17.429Z,6.92
2018-09-09T11:07:46.309Z,7.00
2018-09-09T11:10:15.307Z,7.75
2018-09-09T11:12:44.152Z,6.87
2018-09-09T11:15:13.104Z,7.00
2018-09-09T11:17:45.109Z,7.72
2018-09-09T11:20:14.012Z,7.17
2018-09-09T11:22:42.928Z,7.25
2018-09-09T11:25:12.861Z,7.12
2018-09-09T11:27:41.736Z,6.50
2018-09-09T11:30:10.809Z,6.97
2018-09-09T11:32:42.636Z,7.15
2018-09-09T11:35:11.522Z,6.83
2018-09-09T11:37:40.325Z,6.60
2018-09-09T11:40:09.413Z,6.45
2018-09-09T11:42:38.429Z,6.87
2018-09-09T11:45:07.353Z,7.62
2018-09-09T11:47:36.374Z,6.40
2018-09-09T11:50:05.448Z,6.83
2018-09-09T11:52:34.489Z,6.87
2018-09-09T11:55:03.427Z,6.97
2018-09-09T11:57:32.468Z,6.95
2018-09-09T12:00:01.399Z,6.72
2018-09-09T12:02:31.366Z,6.95
2018-09-09T12:05:00.342Z,6.78
2018-09-09T12:07:29.332Z,7.22
2018-09-09T12:10:01.831Z,7.60
2018-09-09T12:12:30.589Z,7.53
2018-09-09T12:14:59.895Z,7.42
2018-09-09T12:17:29.020Z,7.28
2018-09-09T12:19:58.075Z,7.25
2018-09-09T12:22:27.098Z,6.92
2018-09-09T12:24:56.035Z,6.53
2018-09-09T12:27:24.961Z,9.73
2018-09-09T12:29:53.806Z,6.15
2018-09-09T12:32:22.912Z,6.10
2018-09-09T12:34:51.632Z,6.42
2018-09-09T12:37:20.714Z,7.25
2018-09-09T12:39:50.128Z,6.58
2018-09-09T12:42:19.136Z,6.97
2018-09-09T12:44:58.118Z,6.60
2018-09-09T12:47:32.115Z,7.08
2018-09-09T12:50:01.712Z,6.80
2018-09-09T12:52:30.672Z,6.78
2018-09-09T12:54:59.745Z,6.92
2018-09-09T12:57:29.702Z,5.90
2018-09-09T12:59:58.639Z,6.50
2018-09-09T13:02:27.816Z,6.40
2018-09-09T13:04:58.382Z,5.87
2018-09-09T13:07:27.503Z,6.45
2018-09-09T13:09:56.270Z,6.70
2018-09-09T13:12:28.143Z,6.60
2018-09-09T13:14:57.077Z,5.83
2018-09-09T13:17:26.014Z,6.28
2018-09-09T13:20:06.433Z,6.20
2018-09-09T13:22:35.349Z,7.05
2018-09-09T13:25:04.298Z,6.67
2018-09-09T13:27:33.725Z,6.25
2018-09-09T13:30:02.614Z,6.05
2018-09-09T13:32:31.532Z,6.67
2018-09-09T13:35:00.914Z,6.12
2018-09-09T13:37:29.946Z,6.90
2018-09-09T13:39:59.892Z,6.00
2018-09-09T13:42:29.278Z,5.97
2018-09-09T13:44:58.724Z,5.90
2018-09-09T13:47:27.636Z,5.80
2018-09-09T13:49:56.739Z,6.17
2018-09-09T13:52:25.712Z,6.33
2018-09-09T13:54:54.728Z,5.78
2018-09-09T13:57:23.965Z,6.95
2018-09-09T13:59:52.828Z,5.95
2018-09-09T14:02:21.805Z,6.17
2018-09-09T14:04:51.079Z,5.70
2018-09-09T14:07:20.053Z,6.00
2018-09-09T14:09:49.070Z,6.25
2018-09-09T14:12:18.366Z,5.83
2018-09-09T14:14:47.253Z,6.17
2018-09-09T14:17:16.176Z,5.53
2018-09-09T14:19:45.638Z,5.70
2018-09-09T14:22:18.274Z,5.83
2018-09-09T14:24:47.533Z,6.30
2018-09-09T14:27:16.392Z,6.05
2018-09-09T14:29:45.970Z,6.45
2018-09-09T14:32:14.857Z,6.22
2018-09-09T14:34:43.817Z,6.53
2018-09-09T14:37:13.122Z,6.75
2018-09-09T14:39:42.493Z,6.37
2018-09-09T14:42:11.602Z,6.37
2018-09-09T14:44:40.438Z,6.40
2018-09-09T14:47:09.579Z,6.25
2018-09-09T14:49:38.487Z,6.72
2018-09-09T14:52:07.529Z,6.65
2018-09-09T14:54:37.523Z,6.60
2018-09-09T14:57:09.480Z,6.72
2018-09-09T14:59:38.691Z,6.62
2018-09-09T15:02:07.696Z,6.33
2018-09-09T15:04:36.693Z,7.22
2018-09-09T15:07:05.914Z,7.17
2018-09-09T15:09:34.874Z,6.90
2018-09-09T15:12:04.634Z,6.60
2018-09-09T15:14:33.594Z,7.47
2018-09-09T15:17:02.428Z,6.53
2018-09-09T15:19:31.384Z,7.15
2018-09-09T15:22:00.340Z,7.12
2018-09-09T15:24:29.900Z,7.30
2018-09-09T15:26:59.827Z,7.40
2018-09-09T15:29:28.886Z,6.67
2018-09-09T15:31:57.758Z,7.75
2018-09-09T15:34:27.183Z,7.92
2018-09-09T15:36:56.952Z,7.58
2018-09-09T15:39:25.963Z,6.80
2018-09-09T15:41:55.315Z,6.70
2018-09-09T15:44:24.226Z,7.60
2018-09-09T15:46:56.986Z,7.30
2018-09-09T15:49:29.614Z,7.85
2018-09-09T15:51:58.897Z,7.45
2018-09-09T15:54:27.789Z,7.83
2018-09-09T15:56:56.617Z,8.63
2018-09-09T15:59:25.582Z,7.78
2018-09-09T16:01:55.475Z,7.15
2018-09-09T16:08:07.158Z,7.42
2018-09-09T16:10:37.248Z,7.67
2018-09-09T16:13:07.112Z,7.85
2018-09-09T16:15:36.022Z,7.45
2018-09-09T16:18:05.359Z,7.67
2018-09-09T16:20:34.207Z,7.95
2018-09-09T16:23:03.192Z,7.67
2018-09-09T16:25:32.429Z,7.45
2018-09-09T16:28:01.354Z,8.58
2018-09-09T16:30:30.328Z,8.58
2018-09-09T16:32:59.281Z,9.35
2018-09-09T16:35:28.160Z,8.55
2018-09-09T16:37:57.033Z,9.63
2018-09-09T16:40:26.092Z,9.15
2018-09-09T16:42:55.131Z,8.75
2018-09-09T16:45:24.109Z,8.65
2018-09-09T16:47:53.457Z,9.28
2018-09-09T16:50:23.395Z,9.15
2018-09-09T16:52:52.258Z,9.90
2018-09-09T16:55:37.268Z,9.58
2018-09-09T16:58:06.363Z,9.93
2018-09-09T17:00:35.314Z,9.45
2018-09-09T17:03:04.821Z,9.70
2018-09-09T17:05:44.567Z,8.90
2018-09-09T17:08:13.833Z,8.98
2018-09-09T17:10:42.829Z,9.73
2018-09-09T17:13:11.804Z,10.80
2018-09-09T17:15:40.675Z,10.13
2018-09-09T17:18:09.672Z,8.50
2018-09-09T17:20:38.848Z,9.10
2018-09-09T17:23:07.960Z,10.05
2018-09-09T17:25:36.926Z,8.80
2018-09-09T17:28:05.992Z,9.00
2018-09-09T17:30:34.963Z,8.85
2018-09-09T17:33:03.959Z,8.50
2018-09-09T17:35:32.821Z,9.28
2018-09-09T17:38:01.873Z,8.55
2018-09-09T17:40:30.838Z,8.55
2018-09-09T17:42:59.749Z,8.83
2018-09-09T17:45:29.493Z,8.98
2018-09-09T17:48:05.196Z,8.68
2018-09-09T17:50:34.550Z,7.90
2018-09-09T17:53:03.710Z,8.00
2018-09-09T17:55:34.269Z,8.48
2018-09-09T17:58:06.563Z,8.90
2018-09-09T18:00:35.572Z,8.00
2018-09-09T18:03:05.491Z,8.43
2018-09-09T18:05:38.033Z,8.50
2018-09-09T18:08:13.105Z,8.05
2018-09-09T18:10:42.871Z,8.95
2018-09-09T18:13:13.025Z,8.58
2018-09-09T18:15:42.082Z,8.43
2018-09-09T18:18:12.590Z,8.75
2018-09-09T18:20:42.198Z,8.33
2018-09-09T18:23:15.821Z,7.72
2018-09-09T18:25:46.941Z,7.87
2018-09-09T18:28:20.268Z,8.00
2018-09-09T18:30:49.158Z,8.88
2018-09-09T18:33:18.175Z,7.58
2018-09-09T18:35:47.580Z,7.72
2018-09-09T18:38:19.927Z,8.00
2018-09-09T18:40:49.827Z,7.62
2018-09-09T18:43:18.866Z,8.18
2018-09-09T18:45:48.113Z,8.05
2018-09-09T18:48:23.683Z,8.80
2018-09-09T18:51:00.566Z,7.58
2018-09-09T18:53:37.082Z,8.43
2018-09-09T18:56:06.196Z,8.10
2018-09-09T18:58:35.450Z,8.55
2018-09-09T19:01:04.591Z,7.85
2018-09-09T19:03:33.684Z,8.13
2018-09-09T19:10:07.907Z,8.28
2018-09-09T19:12:36.986Z,9.27
2018-09-09T19:15:06.277Z,9.30
2018-09-09T19:17:35.366Z,8.87
2018-09-09T19:20:04.469Z,10.40
2018-09-09T19:22:33.513Z,9.60
2018-09-09T19:25:02.738Z,8.83
2018-09-09T19:27:33.805Z,9.00
2018-09-09T19:30:02.935Z,8.33
2018-09-09T19:32:31.934Z,8.93
2018-09-09T19:35:01.084Z,7.83
2018-09-09T19:37:30.668Z,7.60
2018-09-09T19:39:59.663Z,7.30
2018-09-09T19:42:28.866Z,7.28
2018-09-09T19:45:04.761Z,7.47
2018-09-09T19:47:34.350Z,7.67
2018-09-09T19:50:04.494Z,6.50
2018-09-09T19:52:38.393Z,7.50
2018-09-09T19:55:07.706Z,6.70
2018-09-09T19:57:37.146Z,6.90
2018-09-09T20:00:12.348Z,7.07
2018-09-09T20:02:41.308Z,6.67
2018-09-09T20:05:10.193Z,6.87
2018-09-09T20:07:45.409Z,7.08
2018-09-09T20:10:14.524Z,5.93
2018-09-09T20:12:44.602Z,6.13
2018-09-09T20:15:13.817Z,6.80
2018-09-09T20:17:42.884Z,6.60
2018-09-09T20:20:15.313Z,7.80
2018-09-09T20:22:44.590Z,6.70
2018-09-09T20:25:13.640Z,7.33
2018-09-09T20:27:43.623Z,6.70
2018-09-09T20:30:17.858Z,6.30
2018-09-09T20:32:46.925Z,6.67
2018-09-09T20:35:16.525Z,6.43
2018-09-09T20:37:49.425Z,6.97
2018-09-09T20:40:18.619Z,6.63
2018-09-09T20:42:48.927Z,6.43
2018-09-09T20:45:25.818Z,6.57
2018-09-09T20:48:01.714Z,6.77
2018-09-09T20:50:31.142Z,7.03
2018-09-09T20:53:00.295Z,6.17
2018-09-09T20:55:29.622Z,7.07
2018-09-09T20:57:59.803Z,6.77
2018-09-09T21:05:45.177Z,6.73
2018-09-09T21:08:15.469Z,6.07
2018-09-09T21:10:56.530Z,6.40
2018-09-09T21:13:25.806Z,6.70
2018-09-09T21:15:54.894Z,6.30
2018-09-09T21:18:24.995Z,6.73
2018-09-09T21:20:54.521Z,6.20
2018-09-09T21:23:23.594Z,6.53
2018-09-09T21:25:53.675Z,6.40
2018-09-09T21:28:22.992Z,6.17
2018-09-09T21:30:51.987Z,6.37
2018-09-09T21:33:20.997Z,6.73
2018-09-09T21:35:50.092Z,5.60
2018-09-09T21:38:18.856Z,6.10
2018-09-09T21:40:47.769Z,5.70
2018-09-09T21:43:16.976Z,6.03
2018-09-09T21:45:46.113Z,5.90
2018-09-09T21:48:15.113Z,6.37
2018-09-09T21:50:44.582Z,6.17
2018-09-09T21:53:17.437Z,5.63
2018-09-09T21:55:46.849Z,5.70
2018-09-09T21:58:18.921Z,5.73
2018-09-09T22:03:42.217Z,5.33
2018-09-09T22:06:12.069Z,5.73
2018-09-09T22:08:41.025Z,6.13
2018-09-09T22:11:09.908Z,5.90
2018-09-09T22:13:39.389Z,5.80
2018-09-09T22:16:08.411Z,5.47
2018-09-09T22:18:37.388Z,6.10
2018-09-09T22:21:12.231Z,6.10
2018-09-09T22:23:42.401Z,6.20
2018-09-09T22:26:18.481Z,5.83
2018-09-09T22:28:48.457Z,5.63
2018-09-09T22:31:22.329Z,6.17
2018-09-09T22:33:55.359Z,5.57
2018-09-09T22:36:25.345Z,6.20
2018-09-09T22:38:55.050Z,6.40
2018-09-09T22:41:24.195Z,5.47
2018-09-09T22:44:00.332Z,5.70
2018-09-09T22:46:30.022Z,6.03
2018-09-09T22:48:58.973Z,6.47
2018-09-09T22:51:28.142Z,5.30
2018-09-09T22:53:56.960Z,6.00
2018-09-09T22:56:25.885Z,6.30
2018-09-09T22:59:04.090Z,5.97
2018-09-09T23:01:37.804Z,6.13
2018-09-09T23:04:07.346Z,5.67
2018-09-09T23:09:58.790Z,5.80
2018-09-09T23:12:27.765Z,5.70
2018-09-09T23:14:56.811Z,5.70
2018-09-09T23:17:25.972Z,6.07
2018-09-09T23:19:54.984Z,6.37
2018-09-09T23:22:23.832Z,6.30
2018-09-09T23:24:53.328Z,6.73
2018-09-09T23:27:22.236Z,6.60
2018-09-09T23:29:51.087Z,6.40
2018-09-09T23:32:20.401Z,5.77
2018-09-09T23:34:49.305Z,6.93
2018-09-09T23:37:18.198Z,7.13
2018-09-09T23:39:47.512Z,7.13
2018-09-09T23:42:16.412Z,7.70
2018-09-09T23:44:45.547Z,7.00
2018-09-09T23:47:14.647Z,7.87
2018-09-09T23:49:43.606Z,7.17
2018-09-09T23:52:12.596Z,7.50
2018-09-09T23:54:41.960Z,7.83
2018-09-09T23:57:11.001Z,6.87
2018-09-09T23:59:39.958Z,7.07
